sensor_id;sensor_type;location;lat;lon;timestamp;pressure;altitude;pressure_sealevel;temperature;humidity
55068;BME280;40965;52.368;9.712;2022-12-29T00:01:37;99625.19;;;7.89;100.00
55068;BME280;40965;52.368;9.712;2022-12-29T00:04:04;99620.84;;;7.91;100.00
55068;BME280;40965;52.368;9.712;2022-12-29T00:06:31;99622.50;;;7.95;100.00
55068;BME280;40965;52.368;9.712;2022-12-29T00:08:58;99629.34;;;8.01;100.00
55068;BME280;40965;52.368;9.712;2022-12-29T00:11:26;99623.16;;;8.10;100.00
55068;BME280;40965;52.368;9.712;2022-12-29T00:13:53;99620.44;;;8.18;100.00
55068;BME280;40965;52.368;9.712;2022-12-29T00:16:40;99622.13;;;8.20;100.00
55068;BME280;40965;52.368;9.712;2022-12-29T00:19:07;99629.00;;;8.24;100.00
55068;BME280;40965;52.368;9.712;2022-12-29T00:21:54;99618.50;;;8.31;100.00
55068;BME280;40965;52.368;9.712;2022-12-29T00:24:38;99620.19;;;8.32;100.00
55068;BME280;40965;52.368;9.712;2022-12-29T00:27:22;99616.75;;;8.30;100.00
55068;BME280;40965;52.368;9.712;2022-12-29T00:30:10;99616.69;;;8.33;100.00
55068;BME280;40965;52.368;9.712;2022-12-29T00:32:55;99618.50;;;8.31;100.00
55068;BME280;40965;52.368;9.712;2022-12-29T00:35:42;99612.38;;;8.32;100.00
55068;BME280;40965;52.368;9.712;2022-12-29T00:38:21;99614.03;;;8.37;100.00
55068;BME280;40965;52.368;9.712;2022-12-29T00:41:05;99614.88;;;8.38;100.00
55068;BME280;40965;52.368;9.712;2022-12-29T00:43:48;99614.78;;;8.44;100.00
55068;BME280;40965;52.368;9.712;2022-12-29T00:46:40;99613.94;;;8.43;100.00
55068;BME280;40965;52.368;9.712;2022-12-29T00:49:09;99616.50;;;8.45;100.00
55068;BME280;40965;52.368;9.712;2022-12-29T00:51:56;99619.97;;;8.47;100.00
55068;BME280;40965;52.368;9.712;2022-12-29T00:54:23;99613.91;;;8.47;100.00
55068;BME280;40965;52.368;9.712;2022-12-29T00:56:51;99604.34;;;8.46;100.00
55068;BME280;40965;52.368;9.712;2022-12-29T00:59:18;99604.31;;;8.49;100.00
55068;BME280;40965;52.368;9.712;2022-12-29T01:01:46;99605.16;;;8.49;100.00
55068;BME280;40965;52.368;9.712;2022-12-29T01:04:13;99607.81;;;8.48;100.00
55068;BME280;40965;52.368;9.712;2022-12-29T01:06:40;99602.53;;;8.51;100.00
55068;BME280;40965;52.368;9.712;2022-12-29T01:09:08;99592.97;;;8.50;100.00
55068;BME280;40965;52.368;9.712;2022-12-29T01:11:53;99586.91;;;8.49;100.00
55068;BME280;40965;52.368;9.712;2022-12-29T01:14:20;99585.22;;;8.47;100.00
55068;BME280;40965;52.368;9.712;2022-12-29T01:16:47;99578.28;;;8.44;100.00
55068;BME280;40965;52.368;9.712;2022-12-29T01:19:14;99577.41;;;8.42;100.00
55068;BME280;40965;52.368;9.712;2022-12-29T01:21:41;99575.72;;;8.39;100.00
55068;BME280;40965;52.368;9.712;2022-12-29T01:24:08;99569.69;;;8.37;100.00
55068;BME280;40965;52.368;9.712;2022-12-29T01:26:35;99560.09;;;8.41;100.00
55068;BME280;40965;52.368;9.712;2022-12-29T01:29:01;99548.81;;;8.39;100.00
55068;BME280;40965;52.368;9.712;2022-12-29T01:31:28;99555.81;;;8.35;100.00
55068;BME280;40965;52.368;9.712;2022-12-29T01:33:54;99545.44;;;8.32;100.00
55068;BME280;40965;52.368;9.712;2022-12-29T01:36:21;99551.59;;;8.28;100.00
55068;BME280;40965;52.368;9.712;2022-12-29T01:38:47;99541.16;;;8.30;100.00
55068;BME280;40965;52.368;9.712;2022-12-29T01:41:15;99536.78;;;8.30;100.00
55068;BME280;40965;52.368;9.712;2022-12-29T01:43:50;99533.34;;;8.28;100.00
55068;BME280;40965;52.368;9.712;2022-12-29T01:46:35;99523.84;;;8.25;100.00
55068;BME280;40965;52.368;9.712;2022-12-29T01:49:13;99531.72;;;8.21;100.00
55068;BME280;40965;52.368;9.712;2022-12-29T01:51:55;99530.03;;;8.18;100.00
55068;BME280;40965;52.368;9.712;2022-12-29T01:54:34;99528.31;;;8.19;100.00
55068;BME280;40965;52.368;9.712;2022-12-29T01:57:08;99531.75;;;8.19;100.00
55068;BME280;40965;52.368;9.712;2022-12-29T01:59:42;99523.03;;;8.22;100.00
55068;BME280;40965;52.368;9.712;2022-12-29T02:02:12;99522.94;;;8.28;100.00
55068;BME280;40965;52.368;9.712;2022-12-29T02:04:41;99502.75;;;8.38;100.00
55068;BME280;40965;52.368;9.712;2022-12-29T02:07:17;99511.34;;;8.43;100.00
55068;BME280;40965;52.368;9.712;2022-12-29T02:09:49;99510.50;;;8.42;100.00
55068;BME280;40965;52.368;9.712;2022-12-29T02:12:18;99508.75;;;8.43;100.00
55068;BME280;40965;52.368;9.712;2022-12-29T02:14:47;99508.69;;;8.44;100.00
55068;BME280;40965;52.368;9.712;2022-12-29T02:17:41;99503.50;;;8.46;100.00
55068;BME280;40965;52.368;9.712;2022-12-29T02:23:53;99505.22;;;8.49;100.00
55068;BME280;40965;52.368;9.712;2022-12-29T02:26:57;99498.06;;;8.58;100.00
55068;BME280;40965;52.368;9.712;2022-12-29T02:35:42;99512.50;;;8.76;100.00
55068;BME280;40965;52.368;9.712;2022-12-29T02:38:25;99510.72;;;8.77;100.00
55068;BME280;40965;52.368;9.712;2022-12-29T02:41:11;99510.69;;;8.78;100.00
55068;BME280;40965;52.368;9.712;2022-12-29T02:43:53;99508.16;;;8.75;100.00
55068;BME280;40965;52.368;9.712;2022-12-29T02:49:18;99515.09;;;8.76;100.00
55068;BME280;40965;52.368;9.712;2022-12-29T02:51:58;99509.81;;;8.80;100.00
55068;BME280;40965;52.368;9.712;2022-12-29T02:54:28;99489.69;;;8.85;100.00
55068;BME280;40965;52.368;9.712;2022-12-29T02:59:54;99486.88;;;8.94;100.00
55068;BME280;40965;52.368;9.712;2022-12-29T03:03:00;99483.31;;;8.98;100.00
55068;BME280;40965;52.368;9.712;2022-12-29T03:05:59;99487.56;;;9.04;100.00
55068;BME280;40965;52.368;9.712;2022-12-29T03:08:42;99497.16;;;9.02;100.00
55068;BME280;40965;52.368;9.712;2022-12-29T03:11:13;99494.59;;;9.00;100.00
55068;BME280;40965;52.368;9.712;2022-12-29T03:14:01;99481.63;;;8.97;100.00
55068;BME280;40965;52.368;9.712;2022-12-29T03:16:53;99478.09;;;9.00;100.00
55068;BME280;40965;52.368;9.712;2022-12-29T03:19:42;99460.78;;;8.94;100.00
55068;BME280;40965;52.368;9.712;2022-12-29T03:22:19;99470.50;;;8.87;100.00
55068;BME280;40965;52.368;9.712;2022-12-29T03:25:04;99461.88;;;8.85;100.00
55068;BME280;40965;52.368;9.712;2022-12-29T03:27:45;99452.19;;;8.89;100.00
55068;BME280;40965;52.368;9.712;2022-12-29T03:30:16;99438.84;;;9.03;100.00
55068;BME280;40965;52.368;9.712;2022-12-29T03:32:50;99444.03;;;9.04;100.00
55068;BME280;40965;52.368;9.712;2022-12-29T03:35:21;99438.84;;;9.03;100.00
55068;BME280;40965;52.368;9.712;2022-12-29T03:40:53;99456.22;;;9.05;100.00
55068;BME280;40965;52.368;9.712;2022-12-29T03:43:22;99450.94;;;9.07;100.00
55068;BME280;40965;52.368;9.712;2022-12-29T03:45:49;99443.06;;;9.08;100.00
55068;BME280;40965;52.368;9.712;2022-12-29T03:48:16;99449.94;;;9.14;100.00
55068;BME280;40965;52.368;9.712;2022-12-29T03:50:42;99439.41;;;9.17;100.00
55068;BME280;40965;52.368;9.712;2022-12-29T03:53:08;99430.59;;;9.21;100.00
55068;BME280;40965;52.368;9.712;2022-12-29T03:55:35;99424.41;;;9.27;100.00
55068;BME280;40965;52.368;9.712;2022-12-29T03:58:01;99430.28;;;9.35;100.00
55068;BME280;40965;52.368;9.712;2022-12-29T04:00:28;99425.72;;;9.43;100.00
55068;BME280;40965;52.368;9.712;2022-12-29T04:02:55;99436.13;;;9.47;100.00
55068;BME280;40965;52.368;9.712;2022-12-29T04:05:21;99436.84;;;9.53;100.00
55068;BME280;40965;52.368;9.712;2022-12-29T04:07:48;99434.09;;;9.58;100.00
55068;BME280;40965;52.368;9.712;2022-12-29T04:10:15;99430.53;;;9.60;100.00
55068;BME280;40965;52.368;9.712;2022-12-29T04:12:41;99434.78;;;9.66;100.00
55068;BME280;40965;52.368;9.712;2022-12-29T04:15:09;99439.13;;;9.66;100.00
55068;BME280;40965;52.368;9.712;2022-12-29T04:17:35;99440.81;;;9.68;100.00
55068;BME280;40965;52.368;9.712;2022-12-29T04:20:02;99428.50;;;9.73;100.00
55068;BME280;40965;52.368;9.712;2022-12-29T04:22:43;99422.41;;;9.73;100.00
55068;BME280;40965;52.368;9.712;2022-12-29T04:25:10;99430.22;;;9.74;100.00
55068;BME280;40965;52.368;9.712;2022-12-29T04:27:37;99434.50;;;9.77;100.00
55068;BME280;40965;52.368;9.712;2022-12-29T04:30:03;99434.59;;;9.74;100.00
55068;BME280;40965;52.368;9.712;2022-12-29T04:32:30;99422.47;;;9.70;100.00
55068;BME280;40965;52.368;9.712;2022-12-29T04:34:57;99434.50;;;9.77;100.00
55068;BME280;40965;52.368;9.712;2022-12-29T04:37:23;99435.34;;;9.77;100.00
55068;BME280;40965;52.368;9.712;2022-12-29T04:39:49;99430.13;;;9.77;100.00
55068;BME280;40965;52.368;9.712;2022-12-29T04:42:16;99445.78;;;9.79;100.00
55068;BME280;40965;52.368;9.712;2022-12-29T04:44:42;99435.34;;;9.77;100.00
55068;BME280;40965;52.368;9.712;2022-12-29T04:47:09;99431.94;;;9.75;100.00
55068;BME280;40965;52.368;9.712;2022-12-29T04:49:35;99425.84;;;9.75;100.00
55068;BME280;40965;52.368;9.712;2022-12-29T04:52:02;99420.69;;;9.72;100.00
55068;BME280;40965;52.368;9.712;2022-12-29T04:54:29;99425.06;;;9.71;100.00
55068;BME280;40965;52.368;9.712;2022-12-29T04:56:55;99428.53;;;9.72;100.00
55068;BME280;40965;52.368;9.712;2022-12-29T04:59:22;99423.34;;;9.70;100.00
55068;BME280;40965;52.368;9.712;2022-12-29T05:01:48;99423.22;;;9.75;100.00
55068;BME280;40965;52.368;9.712;2022-12-29T05:04:15;99410.25;;;9.72;100.00
55068;BME280;40965;52.368;9.712;2022-12-29T05:06:41;99413.78;;;9.69;100.00
55068;BME280;40965;52.368;9.712;2022-12-29T05:09:07;99411.22;;;9.68;100.00
55068;BME280;40965;52.368;9.712;2022-12-29T05:11:34;99408.50;;;9.71;100.00
55068;BME280;40965;52.368;9.712;2022-12-29T05:14:01;99408.50;;;9.71;100.00
55068;BME280;40965;52.368;9.712;2022-12-29T05:16:27;99401.63;;;9.68;100.00
55068;BME280;40965;52.368;9.712;2022-12-29T05:18:54;99405.94;;;9.69;100.00
55068;BME280;40965;52.368;9.712;2022-12-29T05:21:20;99400.63;;;9.74;100.00
55068;BME280;40965;52.368;9.712;2022-12-29T05:23:46;99400.47;;;9.79;100.00
55068;BME280;40965;52.368;9.712;2022-12-29T05:26:13;99403.03;;;9.82;100.00
55068;BME280;40965;52.368;9.712;2022-12-29T05:28:39;99399.41;;;9.87;100.00
55068;BME280;40965;52.368;9.712;2022-12-29T05:31:06;99395.94;;;9.85;100.00
55068;BME280;40965;52.368;9.712;2022-12-29T05:33:32;99396.03;;;9.82;100.00
55068;BME280;40965;52.368;9.712;2022-12-29T05:36:06;99400.19;;;9.91;99.81
55068;BME280;40965;52.368;9.712;2022-12-29T05:38:34;99398.31;;;9.96;98.91
55068;BME280;40965;52.368;9.712;2022-12-29T05:41:01;99404.06;;;10.07;98.74
55068;BME280;40965;52.368;9.712;2022-12-29T05:43:27;99398.06;;;10.05;98.99
55068;BME280;40965;52.368;9.712;2022-12-29T05:45:54;99393.72;;;10.04;99.29
55068;BME280;40965;52.368;9.712;2022-12-29T05:48:21;99396.44;;;10.00;100.00
55068;BME280;40965;52.368;9.712;2022-12-29T05:50:51;99400.97;;;9.93;100.00
55068;BME280;40965;52.368;9.712;2022-12-29T05:53:18;99412.31;;;9.92;100.00
55068;BME280;40965;52.368;9.712;2022-12-29T05:55:47;99412.41;;;9.89;100.00
55068;BME280;40965;52.368;9.712;2022-12-29T05:58:15;99413.50;;;9.80;100.00
55068;BME280;40965;52.368;9.712;2022-12-29T06:00:42;99408.47;;;9.74;100.00
55068;BME280;40965;52.368;9.712;2022-12-29T06:03:11;99405.09;;;9.69;100.00
55068;BME280;40965;52.368;9.712;2022-12-29T06:05:37;99407.78;;;9.66;100.00
55068;BME280;40965;52.368;9.712;2022-12-29T06:08:04;99406.03;;;9.66;100.00
55068;BME280;40965;52.368;9.712;2022-12-29T06:10:30;99396.56;;;9.62;100.00
55068;BME280;40965;52.368;9.712;2022-12-29T06:12:57;99398.41;;;9.58;100.00
55068;BME280;40965;52.368;9.712;2022-12-29T06:15:23;99388.94;;;9.53;100.00
55068;BME280;40965;52.368;9.712;2022-12-29T06:17:50;99376.06;;;9.45;100.00
55068;BME280;40965;52.368;9.712;2022-12-29T06:20:16;99372.78;;;9.37;100.00
55068;BME280;40965;52.368;9.712;2022-12-29T06:22:43;99371.25;;;9.28;100.00
55068;BME280;40965;52.368;9.712;2022-12-29T06:25:10;99370.53;;;9.21;100.00
55068;BME280;40965;52.368;9.712;2022-12-29T06:27:36;99371.44;;;9.22;100.00
55068;BME280;40965;52.368;9.712;2022-12-29T06:30:03;99361.91;;;9.19;100.00
55068;BME280;40965;52.368;9.712;2022-12-29T06:32:30;99359.25;;;9.21;100.00
55068;BME280;40965;52.368;9.712;2022-12-29T06:34:56;99353.25;;;9.17;100.00
55068;BME280;40965;52.368;9.712;2022-12-29T06:37:23;99341.03;;;9.19;100.00
55068;BME280;40965;52.368;9.712;2022-12-29T06:39:49;99334.88;;;9.20;100.00
55068;BME280;40965;52.368;9.712;2022-12-29T06:42:15;99354.00;;;9.22;100.00
55068;BME280;40965;52.368;9.712;2022-12-29T06:44:42;99347.00;;;9.24;100.00
55068;BME280;40965;52.368;9.712;2022-12-29T06:47:08;99352.03;;;9.32;100.00
55068;BME280;40965;52.368;9.712;2022-12-29T06:49:35;99343.41;;;9.29;100.00
55068;BME280;40965;52.368;9.712;2022-12-29T06:52:02;99329.47;;;9.30;100.00
55068;BME280;40965;52.368;9.712;2022-12-29T06:54:30;99339.50;;;9.45;100.00
55068;BME280;40965;52.368;9.712;2022-12-29T06:56:57;99343.38;;;9.63;100.00
55068;BME280;40965;52.368;9.712;2022-12-29T06:59:24;99345.94;;;9.66;100.00
55068;BME280;40965;52.368;9.712;2022-12-29T07:01:51;99342.38;;;9.69;100.00
55068;BME280;40965;52.368;9.712;2022-12-29T07:04:17;99335.25;;;9.75;100.00
55068;BME280;40965;52.368;9.712;2022-12-29T07:06:44;99342.00;;;9.83;100.00
55068;BME280;40965;52.368;9.712;2022-12-29T07:09:10;99342.84;;;9.85;100.00
55068;BME280;40965;52.368;9.712;2022-12-29T07:11:37;99341.03;;;9.87;100.00
55068;BME280;40965;52.368;9.712;2022-12-29T07:14:03;99354.88;;;9.90;100.00
55068;BME280;40965;52.368;9.712;2022-12-29T07:16:30;99355.31;;;10.06;100.00
55068;BME280;40965;52.368;9.712;2022-12-29T07:18:56;99435.84;;;10.26;100.00
55068;BME280;40965;52.368;9.712;2022-12-29T07:21:24;99436.16;;;10.14;100.00
55068;BME280;40965;52.368;9.712;2022-12-29T07:23:50;99440.63;;;9.76;100.00
55068;BME280;40965;52.368;9.712;2022-12-29T07:26:17;99426.47;;;8.72;100.00
55068;BME280;40965;52.368;9.712;2022-12-29T07:28:43;99439.88;;;8.06;100.00
55068;BME280;40965;52.368;9.712;2022-12-29T07:31:14;99464.53;;;7.87;100.00
55068;BME280;40965;52.368;9.712;2022-12-29T07:33:43;99440.25;;;7.85;100.00
55068;BME280;40965;52.368;9.712;2022-12-29T07:36:11;99463.69;;;7.85;100.00
55068;BME280;40965;52.368;9.712;2022-12-29T07:38:39;99463.72;;;7.83;100.00
55068;BME280;40965;52.368;9.712;2022-12-29T07:41:06;99459.59;;;7.71;100.00
55068;BME280;40965;52.368;9.712;2022-12-29T07:43:32;99471.88;;;7.63;100.00
55068;BME280;40965;52.368;9.712;2022-12-29T07:45:59;99471.03;;;7.61;100.00
55068;BME280;40965;52.368;9.712;2022-12-29T07:48:26;99470.09;;;7.65;100.00
55068;BME280;40965;52.368;9.712;2022-12-29T07:50:53;99475.34;;;7.64;100.00
55068;BME280;40965;52.368;9.712;2022-12-29T07:53:20;99476.94;;;7.72;100.00
55068;BME280;40965;52.368;9.712;2022-12-29T07:55:46;99471.19;;;7.52;100.00
55068;BME280;40965;52.368;9.712;2022-12-29T07:58:13;99454.72;;;7.51;100.00
55068;BME280;40965;52.368;9.712;2022-12-29T08:00:39;99459.13;;;7.46;100.00
55068;BME280;40965;52.368;9.712;2022-12-29T08:03:06;99463.50;;;7.44;100.00
55068;BME280;40965;52.368;9.712;2022-12-29T08:05:33;99466.19;;;7.38;100.00
55068;BME280;40965;52.368;9.712;2022-12-29T08:08:00;99472.25;;;7.40;100.00
55068;BME280;40965;52.368;9.712;2022-12-29T08:10:26;99468.75;;;7.41;100.00
55068;BME280;40965;52.368;9.712;2022-12-29T08:12:53;99479.94;;;7.48;100.00
55068;BME280;40965;52.368;9.712;2022-12-29T08:15:19;99479.66;;;7.65;100.00
55068;BME280;40965;52.368;9.712;2022-12-29T08:17:46;99478.63;;;7.75;100.00
55068;BME280;40965;52.368;9.712;2022-12-29T08:20:13;99488.06;;;7.84;100.00
55068;BME280;40965;52.368;9.712;2022-12-29T08:22:40;99496.47;;;8.00;100.00
55068;BME280;40965;52.368;9.712;2022-12-29T08:25:07;99492.03;;;8.05;100.00
55068;BME280;40965;52.368;9.712;2022-12-29T08:27:34;99479.38;;;8.33;100.00
55068;BME280;40965;52.368;9.712;2022-12-29T08:30:00;99487.91;;;8.41;100.00
55068;BME280;40965;52.368;9.712;2022-12-29T08:32:27;99491.84;;;8.66;100.00
55068;BME280;40965;52.368;9.712;2022-12-29T08:34:54;99514.47;;;8.64;100.00
55068;BME280;40965;52.368;9.712;2022-12-29T08:37:21;99474.28;;;8.74;100.00
55068;BME280;40965;52.368;9.712;2022-12-29T08:39:48;99497.38;;;8.92;100.00
55068;BME280;40965;52.368;9.712;2022-12-29T08:42:15;99499.78;;;9.02;100.00
55068;BME280;40965;52.368;9.712;2022-12-29T08:44:41;99497.84;;;9.12;100.00
55068;BME280;40965;52.368;9.712;2022-12-29T08:47:10;99505.53;;;9.19;100.00
55068;BME280;40965;52.368;9.712;2022-12-29T08:49:37;99514.13;;;9.24;99.65
55068;BME280;40965;52.368;9.712;2022-12-29T08:52:03;99517.78;;;9.16;100.00
55068;BME280;40965;52.368;9.712;2022-12-29T08:54:30;99526.63;;;9.08;100.00
55068;BME280;40965;52.368;9.712;2022-12-29T08:56:56;99521.56;;;9.01;100.00
55068;BME280;40965;52.368;9.712;2022-12-29T08:59:23;99532.28;;;8.87;100.00
55068;BME280;40965;52.368;9.712;2022-12-29T09:01:49;99528.00;;;8.84;100.00
55068;BME280;40965;52.368;9.712;2022-12-29T09:04:16;99526.53;;;8.71;100.00
55068;BME280;40965;52.368;9.712;2022-12-29T09:06:44;99533.47;;;8.70;100.00
55068;BME280;40965;52.368;9.712;2022-12-29T09:09:10;99526.53;;;8.71;100.00
55068;BME280;40965;52.368;9.712;2022-12-29T09:11:37;99534.38;;;8.68;100.00
55068;BME280;40965;52.368;9.712;2022-12-29T09:14:04;99529.16;;;8.68;100.00
55068;BME280;40965;52.368;9.712;2022-12-29T09:16:31;99527.44;;;8.67;100.00
55068;BME280;40965;52.368;9.712;2022-12-29T09:18:57;99519.69;;;8.64;100.00
55068;BME280;40965;52.368;9.712;2022-12-29T09:21:24;99523.28;;;8.56;100.00
55068;BME280;40965;52.368;9.712;2022-12-29T09:23:50;99528.28;;;8.69;100.00
55068;BME280;40965;52.368;9.712;2022-12-29T09:26:17;99530.06;;;8.67;100.00
55068;BME280;40965;52.368;9.712;2022-12-29T09:28:43;99527.34;;;8.73;100.00
55068;BME280;40965;52.368;9.712;2022-12-29T09:31:11;99533.25;;;8.83;100.00
55068;BME280;40965;52.368;9.712;2022-12-29T09:33:37;99532.28;;;8.87;100.00
55068;BME280;40965;52.368;9.712;2022-12-29T09:36:04;99539.81;;;9.01;100.00
55068;BME280;40965;52.368;9.712;2022-12-29T09:38:30;99531.06;;;9.05;100.00
55068;BME280;40965;52.368;9.712;2022-12-29T09:41:22;99537.78;;;9.17;100.00
55068;BME280;40965;52.368;9.712;2022-12-29T09:44:12;99534.28;;;9.18;100.00
55068;BME280;40965;52.368;9.712;2022-12-29T09:46:49;99532.59;;;9.15;100.00
55068;BME280;40965;52.368;9.712;2022-12-29T09:52:25;99543.53;;;9.33;100.00
55068;BME280;40965;52.368;9.712;2022-12-29T09:55:04;99547.81;;;9.35;100.00
55068;BME280;40965;52.368;9.712;2022-12-29T09:57:49;99557.44;;;9.33;100.00
55068;BME280;40965;52.368;9.712;2022-12-29T10:00:36;99558.22;;;9.37;100.00
55068;BME280;40965;52.368;9.712;2022-12-29T10:03:17;99548.53;;;9.42;100.00
55068;BME280;40965;52.368;9.712;2022-12-29T10:06:06;99550.09;;;9.51;100.00
55068;BME280;40965;52.368;9.712;2022-12-29T10:14:16;99536.06;;;9.16;100.00
55068;BME280;40965;52.368;9.712;2022-12-29T10:17:24;99543.38;;;8.97;100.00
55068;BME280;40965;52.368;9.712;2022-12-29T10:20:23;99549.72;;;8.85;100.00
55068;BME280;40965;52.368;9.712;2022-12-29T10:25:55;99539.13;;;8.92;100.00
55068;BME280;40965;52.368;9.712;2022-12-29T10:28:30;99533.09;;;8.90;100.00
55068;BME280;40965;52.368;9.712;2022-12-29T10:31:04;99532.25;;;8.88;100.00
55068;BME280;40965;52.368;9.712;2022-12-29T10:33:42;99519.78;;;9.03;100.00
55068;BME280;40965;52.368;9.712;2022-12-29T10:36:17;99517.09;;;9.06;100.00
55068;BME280;40965;52.368;9.712;2022-12-29T10:38:54;99510.19;;;9.03;100.00
55068;BME280;40965;52.368;9.712;2022-12-29T10:41:45;99520.44;;;9.14;100.00
55068;BME280;40965;52.368;9.712;2022-12-29T10:44:16;99514.91;;;9.26;100.00
55068;BME280;40965;52.368;9.712;2022-12-29T10:46:44;99521.66;;;9.37;100.00
55068;BME280;40965;52.368;9.712;2022-12-29T10:49:15;99508.34;;;9.48;98.61
55068;BME280;40965;52.368;9.712;2022-12-29T10:51:45;99502.00;;;9.59;95.91
55068;BME280;40965;52.368;9.712;2022-12-29T10:54:19;99510.22;;;9.80;92.42
55068;BME280;40965;52.368;9.712;2022-12-29T10:56:58;99512.59;;;9.91;90.97
55068;BME280;40965;52.368;9.712;2022-12-29T10:59:33;99523.69;;;9.99;89.80
55068;BME280;40965;52.368;9.712;2022-12-29T11:07:47;99537.47;;;10.06;88.38
55068;BME280;40965;52.368;9.712;2022-12-29T11:10:43;99537.31;;;10.12;87.33
55068;BME280;40965;52.368;9.712;2022-12-29T11:13:12;99531.16;;;10.15;86.64
55068;BME280;40965;52.368;9.712;2022-12-29T11:15:45;99522.56;;;10.09;87.76
55068;BME280;40965;52.368;9.712;2022-12-29T11:18:25;99541.66;;;10.13;86.76
55068;BME280;40965;52.368;9.712;2022-12-29T11:21:03;99529.53;;;10.10;85.87
55068;BME280;40965;52.368;9.712;2022-12-29T11:23:40;99527.44;;;9.89;87.44
55068;BME280;40965;52.368;9.712;2022-12-29T11:26:20;99538.03;;;9.83;88.76
55068;BME280;40965;52.368;9.712;2022-12-29T11:31:41;99523.47;;;9.72;89.93
55068;BME280;40965;52.368;9.712;2022-12-29T11:34:08;99519.25;;;9.67;90.35
55068;BME280;40965;52.368;9.712;2022-12-29T11:36:43;99499.28;;;9.64;90.97
55068;BME280;40965;52.368;9.712;2022-12-29T11:39:28;99518.41;;;9.66;90.82
55068;BME280;40965;52.368;9.712;2022-12-29T11:41:59;99528.81;;;9.68;90.56
55068;BME280;40965;52.368;9.712;2022-12-29T11:44:26;99528.63;;;9.75;89.47
55068;BME280;40965;52.368;9.712;2022-12-29T11:46:53;99532.84;;;9.81;89.29
55068;BME280;40965;52.368;9.712;2022-12-29T11:49:23;99535.31;;;9.87;88.65
55068;BME280;40965;52.368;9.712;2022-12-29T11:51:51;99537.81;;;9.92;88.00
55068;BME280;40965;52.368;9.712;2022-12-29T11:54:33;99547.13;;;10.04;87.37
55068;BME280;40965;52.368;9.712;2022-12-29T11:57:16;99550.25;;;10.18;83.98
55068;BME280;40965;52.368;9.712;2022-12-29T11:59:49;99548.22;;;10.30;84.38
55068;BME280;40965;52.368;9.712;2022-12-29T12:02:30;99551.16;;;10.53;83.84
55068;BME280;40965;52.368;9.712;2022-12-29T12:05:09;99541.59;;;10.84;80.12
55068;BME280;40965;52.368;9.712;2022-12-29T12:07:45;99554.00;;;11.08;79.24
55068;BME280;40965;52.368;9.712;2022-12-29T12:10:17;99558.91;;;11.19;76.57
55068;BME280;40965;52.368;9.712;2022-12-29T12:13:03;99557.34;;;11.14;75.04
55068;BME280;40965;52.368;9.712;2022-12-29T12:15:38;99548.81;;;11.07;74.17
55068;BME280;40965;52.368;9.712;2022-12-29T12:18:16;99561.91;;;11.07;74.50
55068;BME280;40965;52.368;9.712;2022-12-29T12:20:52;99555.81;;;11.05;74.63
55068;BME280;40965;52.368;9.712;2022-12-29T12:26:12;99535.97;;;10.98;74.51
55068;BME280;40965;52.368;9.712;2022-12-29T12:28:48;99540.38;;;10.96;74.93
55068;BME280;40965;52.368;9.712;2022-12-29T12:34:11;99557.34;;;10.81;76.43
55068;BME280;40965;52.368;9.712;2022-12-29T12:37:14;99571.31;;;10.81;75.84
55068;BME280;40965;52.368;9.712;2022-12-29T12:40:18;99566.25;;;10.75;76.55
55068;BME280;40965;52.368;9.712;2022-12-29T12:43:00;99563.72;;;10.72;76.67
55068;BME280;40965;52.368;9.712;2022-12-29T12:45:49;99560.38;;;10.67;76.90
55068;BME280;40965;52.368;9.712;2022-12-29T12:48:53;99565.75;;;10.61;77.49
55068;BME280;40965;52.368;9.712;2022-12-29T12:51:52;99572.03;;;10.55;77.38
55068;BME280;40965;52.368;9.712;2022-12-29T12:57:30;99563.31;;;10.54;77.47
55068;BME280;40965;52.368;9.712;2022-12-29T13:00:19;99553.50;;;10.63;76.36
55068;BME280;40965;52.368;9.712;2022-12-29T13:03:28;99566.59;;;10.63;75.81
55068;BME280;40965;52.368;9.712;2022-12-29T13:06:37;99560.53;;;10.61;75.72
55068;BME280;40965;52.368;9.712;2022-12-29T13:12:38;99570.94;;;10.62;75.36
55068;BME280;40965;52.368;9.712;2022-12-29T13:15:38;99583.72;;;10.74;73.70
55068;BME280;40965;52.368;9.712;2022-12-29T13:21:16;99589.31;;;10.61;74.62
55068;BME280;40965;52.368;9.712;2022-12-29T13:24:06;99569.22;;;10.63;74.00
55068;BME280;40965;52.368;9.712;2022-12-29T13:29:58;99585.44;;;10.75;72.61
55068;BME280;40965;52.368;9.712;2022-12-29T13:32:44;99587.34;;;10.70;72.65
55068;BME280;40965;52.368;9.712;2022-12-29T13:35:26;99595.19;;;10.70;72.50
55068;BME280;40965;52.368;9.712;2022-12-29T13:38:00;99592.72;;;10.64;72.91
55068;BME280;40965;52.368;9.712;2022-12-29T13:40:34;99608.19;;;10.73;72.06
55068;BME280;40965;52.368;9.712;2022-12-29T13:43:04;99621.25;;;10.73;71.64
55068;BME280;40965;52.368;9.712;2022-12-29T13:45:32;99620.38;;;10.74;72.11
55068;BME280;40965;52.368;9.712;2022-12-29T13:48:14;99633.63;;;10.68;72.79
55068;BME280;40965;52.368;9.712;2022-12-29T13:50:48;99621.41;;;10.67;72.39
55068;BME280;40965;52.368;9.712;2022-12-29T13:53:29;99609.22;;;10.68;72.03
55068;BME280;40965;52.368;9.712;2022-12-29T13:56:17;99633.72;;;10.64;72.79
55068;BME280;40965;52.368;9.712;2022-12-29T13:59:06;99646.94;;;10.59;73.13
55068;BME280;40965;52.368;9.712;2022-12-29T14:07:59;99655.63;;;10.59;73.49
55068;BME280;40965;52.368;9.712;2022-12-29T14:10:48;99661.75;;;10.58;73.00
55068;BME280;40965;52.368;9.712;2022-12-29T14:13:18;99666.28;;;10.52;73.43
55068;BME280;40965;52.368;9.712;2022-12-29T14:15:54;99686.47;;;10.48;73.83
55068;BME280;40965;52.368;9.712;2022-12-29T14:18:31;99683.09;;;10.43;74.29
55068;BME280;40965;52.368;9.712;2022-12-29T14:21:00;99684.88;;;10.41;74.30
55068;BME280;40965;52.368;9.712;2022-12-29T14:23:43;99701.47;;;10.40;74.53
55068;BME280;40965;52.368;9.712;2022-12-29T14:28:55;99698.97;;;10.35;74.30
55068;BME280;40965;52.368;9.712;2022-12-29T14:36:41;99724.38;;;10.29;74.92
55068;BME280;40965;52.368;9.712;2022-12-29T14:39:36;99716.47;;;10.32;74.94
55068;BME280;40965;52.368;9.712;2022-12-29T14:42:10;99721.59;;;10.35;74.53